createdAt,value
2023-01-22T00:00:19.174Z,59.05
2023-01-22T00:02:49.271Z,60.58
2023-01-22T00:05:18.799Z,53.78
2023-01-22T00:07:48.151Z,59.15
2023-01-22T00:10:19.058Z,64.68
2023-01-22T00:12:48.453Z,61.17
2023-01-22T00:15:17.740Z,61.25
2023-01-22T00:17:47.051Z,62.38
2023-01-22T00:20:16.833Z,63.42
2023-01-22T00:22:46.754Z,71.28
2023-01-22T00:25:18.465Z,65.07
2023-01-22T00:27:47.436Z,61.65
2023-01-22T00:30:16.631Z,62.22
2023-01-22T00:32:47.752Z,61.40
2023-01-22T00:35:17.203Z,58.45
2023-01-22T00:37:50.053Z,52.50
2023-01-22T00:40:21.391Z,59.45
2023-01-22T00:42:50.836Z,47.97
2023-01-22T00:45:20.202Z,52.35
2023-01-22T00:47:49.094Z,56.15
2023-01-22T00:50:18.974Z,54.53
2023-01-22T00:52:48.700Z,54.60
2023-01-22T00:55:19.351Z,55.63
2023-01-22T00:57:48.348Z,46.00
2023-01-22T01:00:18.674Z,52.88
2023-01-22T01:03:04.997Z,49.08
2023-01-22T01:05:34.619Z,50.63
2023-01-22T01:08:03.411Z,48.15
2023-01-22T01:10:34.074Z,51.88
2023-01-22T01:13:02.757Z,47.30
2023-01-22T01:15:31.122Z,52.15
2023-01-22T01:17:59.649Z,47.20
2023-01-22T01:20:28.473Z,48.03
2023-01-22T01:22:57.190Z,48.30
2023-01-22T01:25:26.359Z,45.90
2023-01-22T01:27:58.158Z,44.20
2023-01-22T01:30:27.177Z,47.03
2023-01-22T01:32:56.096Z,38.75
2023-01-22T01:35:25.705Z,44.60
2023-01-22T01:37:55.359Z,44.63
2023-01-22T01:40:25.150Z,38.72
2023-01-22T01:42:55.571Z,34.67
2023-01-22T01:45:29.383Z,37.85
2023-01-22T01:48:29.999Z,31.63
2023-01-22T01:51:06.937Z,33.28
2023-01-22T01:53:36.919Z,31.10
2023-01-22T01:56:13.558Z,36.13
2023-01-22T01:58:46.659Z,32.45
2023-01-22T02:01:20.070Z,29.55
2023-01-22T02:03:49.545Z,31.98
2023-01-22T02:06:22.808Z,28.15
2023-01-22T02:08:53.776Z,27.17
2023-01-22T02:11:24.245Z,28.10
2023-01-22T02:14:01.586Z,25.67
2023-01-22T02:16:30.781Z,29.00
2023-01-22T02:18:59.570Z,24.65
2023-01-22T02:21:40.000Z,27.83
2023-01-22T02:24:12.721Z,23.38
2023-01-22T02:26:43.462Z,22.98
2023-01-22T02:29:15.122Z,27.45
2023-01-22T02:31:44.479Z,22.77
2023-01-22T02:34:13.202Z,22.23
2023-01-22T02:36:44.380Z,22.33
2023-01-22T02:39:12.793Z,19.80
2023-01-22T02:41:41.587Z,21.70
2023-01-22T02:44:10.786Z,22.10
2023-01-22T02:46:39.607Z,20.27
2023-01-22T02:49:08.248Z,19.67
2023-01-22T02:51:37.314Z,16.67
2023-01-22T02:54:07.824Z,20.58
2023-01-22T02:56:39.181Z,17.27
2023-01-22T02:59:08.006Z,17.42
2023-01-22T03:01:36.882Z,17.80
2023-01-22T03:04:11.203Z,16.65
2023-01-22T03:06:42.975Z,16.85
2023-01-22T03:09:14.745Z,13.35
2023-01-22T03:11:46.327Z,17.40
2023-01-22T03:14:33.619Z,14.43
2023-01-22T03:17:39.550Z,17.38
2023-01-22T03:20:46.275Z,18.48
2023-01-22T03:23:19.762Z,20.63
2023-01-22T03:25:59.245Z,22.80
2023-01-22T03:28:28.089Z,20.75
2023-01-22T03:30:57.457Z,24.38
2023-01-22T03:33:27.344Z,27.42
2023-01-22T03:36:02.522Z,25.92
2023-01-22T03:38:31.376Z,22.17
2023-01-22T03:41:07.374Z,27.83
2023-01-22T03:43:38.798Z,29.75
2023-01-22T03:46:11.745Z,31.55
2023-01-22T03:48:41.524Z,24.92
2023-01-22T03:51:14.716Z,27.65
2023-01-22T03:53:45.820Z,29.55
2023-01-22T03:56:18.204Z,28.20
2023-01-22T03:58:47.418Z,26.05
2023-01-22T04:01:18.596Z,28.88
2023-01-22T04:03:48.155Z,27.42
2023-01-22T04:06:18.277Z,36.58
2023-01-22T04:08:50.256Z,28.67
2023-01-22T04:11:20.650Z,33.95
2023-01-22T04:13:50.078Z,29.00
2023-01-22T04:16:39.362Z,36.80
2023-01-22T04:19:27.990Z,33.50
2023-01-22T04:22:16.713Z,30.70
2023-01-22T04:25:06.016Z,30.90
2023-01-22T04:27:56.713Z,31.27
2023-01-22T04:30:29.454Z,36.83
2023-01-22T04:32:58.561Z,32.92
2023-01-22T04:35:51.777Z,36.90
2023-01-22T04:38:40.238Z,34.00
2023-01-22T04:41:28.731Z,34.42
2023-01-22T04:44:18.946Z,33.17
2023-01-22T04:47:07.684Z,34.30
2023-01-22T04:49:56.397Z,37.13
2023-01-22T04:52:45.550Z,35.97
2023-01-22T04:55:34.583Z,33.58
2023-01-22T04:58:23.204Z,37.75
2023-01-22T05:01:13.699Z,33.20
2023-01-22T05:04:03.363Z,29.55
2023-01-22T05:06:52.784Z,45.38
2023-01-22T05:09:41.803Z,35.80
2023-01-22T05:12:30.402Z,28.75
2023-01-22T05:15:24.427Z,40.40
2023-01-22T05:18:14.997Z,37.30
2023-01-22T05:21:03.733Z,31.48
2023-01-22T05:23:52.184Z,27.58
2023-01-22T05:26:40.729Z,30.42
2023-01-22T05:29:09.952Z,24.42
2023-01-22T05:31:38.953Z,32.25
2023-01-22T05:34:09.812Z,19.85
2023-01-22T05:36:58.512Z,23.13
2023-01-22T05:39:47.016Z,17.05
2023-01-22T05:42:35.825Z,18.73
2023-01-22T05:45:24.503Z,18.25
2023-01-22T05:48:15.591Z,19.60
2023-01-22T05:51:10.569Z,18.88
2023-01-22T05:53:59.092Z,22.15
2023-01-22T05:56:27.564Z,21.42
2023-01-22T05:58:56.563Z,16.33
2023-01-22T06:01:45.058Z,20.33
2023-01-22T06:04:33.676Z,14.45
2023-01-22T06:07:23.822Z,14.27
2023-01-22T06:10:26.603Z,14.85
2023-01-22T06:13:15.444Z,20.73
2023-01-22T06:16:04.487Z,18.58
2023-01-22T06:18:52.234Z,21.92
2023-01-22T06:21:21.901Z,18.75
2023-01-22T06:23:54.984Z,19.15
2023-01-22T06:26:43.862Z,17.33
2023-01-22T06:29:32.624Z,16.38
2023-01-22T06:32:21.484Z,15.32
2023-01-22T06:35:10.890Z,17.83
2023-01-22T06:37:59.750Z,20.83
2023-01-22T06:40:55.431Z,15.02
2023-01-22T06:43:44.006Z,16.83
2023-01-22T06:46:36.255Z,14.35
2023-01-22T06:49:05.038Z,17.73
2023-01-22T06:51:35.234Z,18.75
2023-01-22T06:54:18.563Z,20.60
2023-01-22T06:56:49.655Z,18.98
2023-01-22T06:59:41.424Z,17.08
2023-01-22T07:02:31.310Z,17.40
2023-01-22T07:05:20.367Z,18.15
2023-01-22T07:08:09.189Z,17.52
2023-01-22T07:10:58.043Z,16.48
2023-01-22T07:13:50.841Z,18.05
2023-01-22T07:16:41.992Z,14.18
2023-01-22T07:19:34.817Z,14.48
2023-01-22T07:22:04.347Z,19.77
2023-01-22T07:24:52.973Z,17.50
2023-01-22T07:27:41.739Z,16.25
2023-01-22T07:30:40.542Z,20.20
2023-01-22T07:33:29.165Z,15.02
2023-01-22T07:36:02.980Z,17.52
2023-01-22T07:38:31.999Z,15.45
2023-01-22T07:41:26.059Z,14.70
2023-01-22T07:44:16.647Z,20.05
2023-01-22T07:47:06.922Z,17.65
2023-01-22T07:49:56.472Z,16.50
2023-01-22T07:52:47.040Z,13.05
2023-01-22T07:55:35.600Z,18.17
2023-01-22T07:58:09.610Z,16.20
2023-01-22T08:00:41.980Z,16.00
2023-01-22T08:03:34.104Z,15.23
2023-01-22T08:06:25.647Z,19.30
2023-01-22T08:09:15.738Z,20.30
2023-01-22T08:12:04.561Z,13.15
2023-01-22T08:14:53.435Z,15.35
2023-01-22T08:17:42.347Z,12.82
2023-01-22T08:20:34.580Z,16.67
2023-01-22T08:23:23.621Z,16.10
2023-01-22T08:25:52.301Z,15.25
2023-01-22T08:28:22.086Z,18.48
2023-01-22T08:30:51.816Z,14.70
2023-01-22T08:33:22.756Z,12.57
2023-01-22T08:36:15.199Z,18.00
2023-01-22T08:39:04.102Z,14.90
2023-01-22T08:41:57.877Z,17.48
2023-01-22T08:44:46.831Z,18.58
2023-01-22T08:47:35.842Z,17.13
2023-01-22T08:50:24.695Z,14.13
2023-01-22T08:53:19.851Z,20.35
2023-01-22T08:55:51.860Z,16.35
2023-01-22T08:58:22.414Z,12.25
2023-01-22T09:00:57.016Z,15.40
2023-01-22T09:03:26.320Z,13.90
2023-01-22T09:06:15.831Z,16.92
2023-01-22T09:09:07.624Z,15.85
2023-01-22T09:11:56.189Z,13.05
2023-01-22T09:14:44.670Z,15.48
2023-01-22T09:17:34.441Z,18.52
2023-01-22T09:20:23.709Z,15.10
2023-01-22T09:23:14.248Z,15.00
2023-01-22T09:26:06.327Z,18.17
2023-01-22T09:28:55.904Z,13.23
2023-01-22T09:31:26.979Z,13.90
2023-01-22T09:33:57.031Z,13.02
2023-01-22T09:36:27.630Z,13.52
2023-01-22T09:38:57.400Z,15.07
2023-01-22T09:41:34.206Z,14.57
2023-01-22T09:44:07.979Z,13.25
2023-01-22T09:46:44.539Z,15.57
2023-01-22T09:49:18.265Z,16.23
2023-01-22T09:51:52.010Z,20.13
2023-01-22T09:54:20.956Z,20.60
2023-01-22T09:56:54.457Z,15.05
2023-01-22T09:59:28.548Z,13.60
2023-01-22T10:02:02.947Z,20.02
2023-01-22T10:04:39.201Z,20.20
2023-01-22T10:07:14.962Z,14.32
2023-01-22T10:09:52.478Z,14.32
2023-01-22T10:12:23.124Z,14.25
2023-01-22T10:14:53.653Z,13.20
2023-01-22T10:17:26.451Z,12.57
2023-01-22T10:20:00.994Z,17.15
2023-01-22T10:22:30.268Z,17.15
2023-01-22T10:25:00.044Z,12.82
2023-01-22T10:27:39.546Z,12.65
2023-01-22T10:30:22.384Z,12.75
2023-01-22T10:33:01.662Z,16.35
2023-01-22T10:35:32.132Z,13.52
2023-01-22T10:38:01.986Z,14.88
2023-01-22T10:40:38.055Z,10.27
2023-01-22T10:43:14.961Z,13.57
2023-01-22T10:45:54.545Z,10.35
2023-01-22T10:48:24.429Z,11.65
2023-01-22T10:51:05.316Z,10.63
2023-01-22T10:53:38.232Z,11.63
2023-01-22T10:56:13.106Z,15.30
2023-01-22T10:58:49.479Z,9.98
2023-01-22T11:01:33.248Z,12.85
2023-01-22T11:04:12.505Z,8.75
2023-01-22T11:06:47.385Z,9.43
2023-01-22T11:09:21.093Z,12.43
2023-01-22T11:12:10.861Z,17.23
2023-01-22T11:14:41.165Z,10.85
2023-01-22T11:17:20.734Z,9.68
2023-01-22T11:19:58.317Z,13.18
2023-01-22T11:22:34.792Z,7.55
2023-01-22T11:25:06.270Z,10.10
2023-01-22T11:27:59.015Z,10.45
2023-01-22T11:31:18.223Z,9.82
2023-01-22T11:34:20.207Z,12.85
2023-01-22T11:36:59.462Z,9.88
2023-01-22T11:40:01.416Z,15.07
2023-01-22T11:42:48.142Z,10.02
2023-01-22T11:45:35.853Z,8.15
2023-01-22T11:48:30.918Z,11.02
2023-01-22T11:51:14.811Z,9.48
2023-01-22T11:54:12.177Z,12.77
2023-01-22T11:57:04.984Z,11.70
2023-01-22T11:59:52.497Z,12.60
2023-01-22T12:02:56.579Z,8.57
2023-01-22T12:05:41.131Z,11.93
2023-01-22T12:08:36.249Z,12.30
2023-01-22T12:11:49.966Z,14.48
2023-01-22T12:14:47.408Z,8.90
2023-01-22T12:17:33.832Z,11.77
2023-01-22T12:20:51.554Z,12.52
2023-01-22T12:23:29.125Z,7.40
2023-01-22T12:26:04.530Z,11.02
2023-01-22T12:28:42.362Z,11.00
2023-01-22T12:31:17.805Z,13.55
2023-01-22T12:33:46.841Z,8.77
2023-01-22T12:36:20.796Z,12.48
2023-01-22T12:38:58.423Z,10.30
2023-01-22T12:41:45.490Z,10.60
2023-01-22T12:44:31.648Z,12.52
2023-01-22T12:47:13.437Z,12.10
2023-01-22T12:49:50.835Z,10.25
2023-01-22T12:52:32.446Z,11.20
2023-01-22T12:55:04.036Z,15.35
2023-01-22T12:57:42.939Z,16.27
2023-01-22T13:00:26.505Z,12.93
2023-01-22T13:02:55.851Z,14.32
2023-01-22T13:05:45.544Z,13.40
2023-01-22T13:08:44.576Z,14.32
2023-01-22T13:11:28.784Z,13.57
2023-01-22T13:14:14.888Z,14.07
2023-01-22T13:16:54.095Z,12.82
2023-01-22T13:19:25.358Z,16.65
2023-01-22T13:21:54.669Z,15.27
2023-01-22T13:24:23.312Z,15.10
2023-01-22T13:26:57.305Z,12.95
2023-01-22T13:29:32.249Z,14.95
2023-01-22T13:34:32.963Z,13.15
2023-01-22T13:37:01.757Z,15.68
2023-01-22T13:39:33.554Z,13.85
2023-01-22T13:42:06.747Z,13.38
2023-01-22T13:44:40.152Z,12.45
2023-01-22T13:47:09.171Z,15.40
2023-01-22T13:49:44.333Z,15.68
2023-01-22T13:54:49.445Z,13.13
2023-01-22T13:57:24.465Z,12.85
2023-01-22T13:59:58.246Z,14.20
2023-01-22T14:02:31.576Z,14.55
2023-01-22T14:05:01.828Z,17.40
2023-01-22T14:07:33.951Z,17.73
2023-01-22T14:10:18.392Z,19.15
2023-01-22T14:13:00.326Z,19.90
2023-01-22T14:15:29.712Z,19.70
2023-01-22T14:18:10.200Z,19.05
2023-01-22T14:20:41.240Z,16.52
2023-01-22T14:23:10.429Z,21.23
2023-01-22T14:25:40.919Z,16.67
2023-01-22T14:28:12.094Z,19.55
2023-01-22T14:30:41.132Z,21.50
2023-01-22T14:33:13.325Z,20.20
2023-01-22T14:35:44.390Z,18.70
2023-01-22T14:38:13.241Z,19.13
2023-01-22T14:40:42.225Z,22.58
2023-01-22T14:43:12.917Z,16.60
2023-01-22T14:45:42.726Z,18.73
2023-01-22T14:48:14.421Z,16.88
2023-01-22T14:50:43.669Z,17.25
2023-01-22T14:53:14.054Z,18.58
2023-01-22T14:55:44.068Z,16.98
2023-01-22T14:58:19.348Z,20.77
2023-01-22T15:03:17.042Z,17.30
2023-01-22T15:05:46.362Z,17.00
2023-01-22T15:08:15.743Z,16.67
2023-01-22T15:10:45.252Z,15.88
2023-01-22T15:13:16.192Z,19.33
2023-01-22T15:15:45.375Z,18.85
2023-01-22T15:18:15.038Z,19.17
2023-01-22T15:20:46.602Z,19.58
2023-01-22T15:23:15.540Z,17.92
2023-01-22T15:25:44.538Z,18.77
2023-01-22T15:28:14.857Z,21.38
2023-01-22T15:30:46.967Z,20.88
2023-01-22T15:33:16.725Z,20.92
2023-01-22T15:35:45.515Z,20.20
2023-01-22T15:38:14.323Z,22.95
2023-01-22T15:40:43.408Z,19.90
2023-01-22T15:43:12.334Z,21.17
2023-01-22T15:45:42.801Z,23.65
2023-01-22T15:48:14.280Z,21.88
2023-01-22T15:50:43.503Z,26.02
2023-01-22T15:53:12.307Z,20.83
2023-01-22T15:55:44.853Z,20.42
2023-01-22T15:58:14.142Z,18.83
2023-01-22T16:00:45.400Z,19.45
2023-01-22T16:03:14.280Z,20.38
2023-01-22T16:05:43.524Z,18.75
2023-01-22T16:08:12.521Z,19.67
2023-01-22T16:10:43.100Z,22.20
2023-01-22T16:13:12.023Z,22.67
2023-01-22T16:15:41.710Z,24.67
2023-01-22T16:18:12.365Z,20.05
2023-01-22T16:20:42.877Z,22.20
2023-01-22T16:23:12.817Z,23.20
2023-01-22T16:25:42.183Z,24.08
2023-01-22T16:28:11.524Z,24.45
2023-01-22T16:30:43.099Z,22.15
2023-01-22T16:33:24.625Z,21.58
2023-01-22T16:36:01.403Z,27.48
2023-01-22T16:38:31.637Z,27.80
2023-01-22T16:41:24.089Z,26.08
2023-01-22T16:43:59.380Z,26.85
2023-01-22T16:46:32.436Z,23.80
2023-01-22T16:49:05.630Z,20.92
2023-01-22T16:51:37.859Z,25.45
2023-01-22T16:54:08.290Z,25.92
2023-01-22T16:56:37.137Z,26.33
2023-01-22T16:59:05.864Z,31.70
2023-01-22T17:01:35.637Z,31.38
2023-01-22T17:04:10.819Z,25.50
2023-01-22T17:06:44.006Z,34.28
2023-01-22T17:09:17.361Z,26.85
2023-01-22T17:11:47.661Z,21.98
2023-01-22T17:14:19.341Z,28.15
2023-01-22T17:16:48.325Z,21.92
2023-01-22T17:19:22.708Z,24.00
2023-01-22T17:21:55.129Z,23.98
2023-01-22T17:24:23.996Z,25.20
2023-01-22T17:26:53.357Z,25.30
2023-01-22T17:29:23.361Z,20.65
2023-01-22T17:31:54.982Z,25.95
2023-01-22T17:34:25.651Z,25.70
2023-01-22T17:36:55.294Z,21.88
2023-01-22T17:39:25.608Z,23.88
2023-01-22T17:41:55.010Z,25.30
2023-01-22T17:44:26.701Z,24.67
2023-01-22T17:46:59.122Z,22.63
2023-01-22T17:49:29.404Z,22.90
2023-01-22T17:51:58.356Z,25.58
2023-01-22T17:54:27.573Z,23.20
2023-01-22T17:56:56.787Z,27.88
2023-01-22T17:59:26.866Z,28.42
2023-01-22T18:01:56.927Z,24.33
2023-01-22T18:04:26.736Z,24.95
2023-01-22T18:07:09.339Z,23.48
2023-01-22T18:09:44.960Z,29.42
2023-01-22T18:12:14.295Z,33.58
2023-01-22T18:14:46.329Z,24.10
2023-01-22T18:17:15.340Z,25.27
2023-01-22T18:19:45.174Z,28.90
2023-01-22T18:22:15.663Z,27.52
2023-01-22T18:24:45.375Z,26.08
2023-01-22T18:27:14.459Z,27.23
2023-01-22T18:29:43.259Z,23.80
2023-01-22T18:32:12.171Z,23.58
2023-01-22T18:34:40.959Z,23.45
2023-01-22T18:37:12.116Z,22.63
2023-01-22T18:39:43.597Z,22.90
2023-01-22T18:42:13.631Z,23.08
2023-01-22T18:44:44.213Z,28.55
2023-01-22T18:47:13.904Z,28.95
2023-01-22T18:49:43.189Z,25.30
2023-01-22T18:52:12.589Z,25.80
2023-01-22T18:54:42.910Z,29.55
2023-01-22T18:57:12.208Z,30.63
2023-01-22T18:59:41.834Z,24.80
2023-01-22T19:02:55.619Z,29.50
2023-01-22T19:05:30.805Z,30.40
2023-01-22T19:10:30.864Z,25.55
2023-01-22T19:13:01.262Z,27.52
2023-01-22T19:15:32.802Z,28.20
2023-01-22T19:18:03.374Z,28.63
2023-01-22T19:20:32.527Z,27.02
2023-01-22T19:23:06.106Z,26.33
2023-01-22T19:25:37.928Z,22.42
2023-01-22T19:28:10.274Z,34.60
2023-01-22T19:30:39.215Z,24.60
2023-01-22T19:33:08.066Z,23.42
2023-01-22T19:35:37.015Z,27.10
2023-01-22T19:38:05.935Z,29.38
2023-01-22T19:40:39.554Z,31.13
2023-01-22T19:43:09.364Z,29.00
2023-01-22T19:45:38.915Z,31.27
2023-01-22T19:48:08.522Z,33.00
2023-01-22T19:50:41.376Z,32.72
2023-01-22T19:53:17.823Z,25.48
2023-01-22T19:58:17.229Z,36.55
2023-01-22T20:00:46.642Z,34.10
2023-01-22T20:03:15.729Z,32.35
2023-01-22T20:05:46.795Z,32.42
2023-01-22T20:08:16.937Z,23.63
2023-01-22T20:10:51.214Z,27.88
2023-01-22T20:13:20.233Z,22.13
2023-01-22T20:15:49.143Z,26.45
2023-01-22T20:18:18.343Z,28.40
2023-01-22T20:20:54.342Z,26.60
2023-01-22T20:23:23.934Z,22.42
2023-01-22T20:25:55.744Z,33.38
2023-01-22T20:28:26.358Z,34.08
2023-01-22T20:31:00.732Z,31.70
2023-01-22T20:33:31.361Z,26.15
2023-01-22T20:36:03.389Z,24.48
2023-01-22T20:38:32.406Z,27.60
2023-01-22T20:41:09.280Z,22.08
2023-01-22T20:43:39.358Z,30.15
2023-01-22T20:46:12.475Z,28.98
2023-01-22T20:48:43.827Z,27.02
2023-01-22T20:51:17.005Z,26.40
2023-01-22T20:53:49.344Z,38.83
2023-01-22T20:56:23.677Z,31.40
2023-01-22T20:58:58.191Z,27.80
2023-01-22T21:01:27.657Z,27.45
2023-01-22T21:03:58.847Z,30.65
2023-01-22T21:06:31.074Z,26.10
2023-01-22T21:09:01.409Z,26.08
2023-01-22T21:11:37.321Z,27.17
2023-01-22T21:14:09.523Z,30.55
2023-01-22T21:16:44.712Z,28.85
2023-01-22T21:19:23.598Z,23.33
2023-01-22T21:21:55.708Z,29.30
2023-01-22T21:24:25.366Z,27.42
2023-01-22T21:26:56.115Z,25.77
2023-01-22T21:29:25.867Z,28.67
2023-01-22T21:31:54.845Z,29.95
2023-01-22T21:34:26.416Z,25.98
2023-01-22T21:36:58.858Z,29.48
2023-01-22T21:39:30.334Z,27.70
2023-01-22T21:42:14.904Z,31.13
2023-01-22T21:45:01.606Z,32.60
2023-01-22T21:47:31.647Z,23.88
2023-01-22T21:50:01.873Z,27.83
2023-01-22T21:52:30.734Z,24.55
2023-01-22T21:55:00.850Z,24.08
2023-01-22T21:57:31.537Z,26.65
2023-01-22T22:00:00.986Z,32.85
2023-01-22T22:02:29.991Z,24.52
2023-01-22T22:05:00.063Z,27.67
2023-01-22T22:07:29.074Z,42.17
2023-01-22T22:09:57.892Z,29.67
2023-01-22T22:12:27.810Z,24.98
2023-01-22T22:14:58.428Z,27.05
2023-01-22T22:17:27.208Z,24.40
2023-01-22T22:19:55.984Z,30.20
2023-01-22T22:22:25.119Z,26.08
2023-01-22T22:24:54.238Z,25.35
2023-01-22T22:27:26.959Z,30.63
2023-01-22T22:29:58.490Z,31.23
2023-01-22T22:32:27.311Z,23.13
2023-01-22T22:34:56.413Z,30.38
2023-01-22T22:37:25.761Z,26.25
2023-01-22T22:39:54.816Z,26.80
2023-01-22T22:42:23.543Z,29.67
2023-01-22T22:44:52.331Z,24.40
2023-01-22T22:47:22.594Z,25.48
2023-01-22T22:49:54.272Z,32.53
2023-01-22T22:52:23.017Z,23.85
2023-01-22T22:54:52.765Z,27.27
2023-01-22T22:57:21.548Z,27.05
2023-01-22T22:59:50.491Z,28.52
2023-01-22T23:02:19.291Z,32.05
2023-01-22T23:04:51.749Z,27.90
2023-01-22T23:07:20.887Z,29.98
2023-01-22T23:09:49.909Z,28.65
2023-01-22T23:12:18.896Z,25.13
2023-01-22T23:14:47.570Z,25.98
2023-01-22T23:17:16.708Z,28.90
2023-01-22T23:19:45.567Z,25.13
2023-01-22T23:22:16.181Z,22.25
2023-01-22T23:24:46.719Z,28.13
2023-01-22T23:27:15.409Z,21.85
2023-01-22T23:29:44.497Z,26.38
2023-01-22T23:32:13.292Z,23.70
2023-01-22T23:34:42.065Z,31.23
2023-01-22T23:37:10.865Z,30.70
2023-01-22T23:39:42.222Z,24.20
2023-01-22T23:42:11.513Z,22.42
2023-01-22T23:44:40.742Z,28.98
2023-01-22T23:47:09.302Z,28.25
2023-01-22T23:49:38.310Z,23.98
2023-01-22T23:52:07.624Z,25.00
2023-01-22T23:54:36.347Z,25.58
2023-01-22T23:57:06.609Z,25.77
2023-01-22T23:59:35.216Z,26.77
